Private Wetterstation Wechselburg
Wetterdaten: Woche 18.07.11 - 24.07.11 (KW29)
Datum Zeit Temp. +2m Bodentemp. Temp.+5cm Temp. Wind Windchill X Diff Temp. Feuchte +2m Feuchte +5cm Sonnenschein Luftdruck Regen Wind Richtung Sonnenschein UV Taupunkt Windchill Windben
18.07.2011 00:00 14,6 C 22,2 C 13,0 C 13,8 C 12,3 C 0,0 C 84 % 95 % 0 % 1003,5 hPa 0,7 l/m 0,4 km/h (0 Bft) S-SW 0,00 h 0,0 UV-I 12,0 C 12,3 C 1,1 km/h (1 Bft)
18.07.2011 01:00 14,3 C 21,9 C 12,8 C 13,5 C 12,0 C 0,0 C 86 % 95 % 0 % 1003,6 hPa 0,0 l/m 0,5 km/h (0 Bft) S-SO 0,00 h 0,0 UV-I 11,9 C 12,0 C 1,5 km/h (1 Bft)
18.07.2011 02:00 14,3 C 21,7 C 12,7 C 13,5 C 12,0 C 0,0 C 86 % 95 % 0 % 1003,7 hPa 0,0 l/m 1,0 km/h (0 Bft) SO 0,00 h 0,0 UV-I 11,9 C 12,0 C 2,0 km/h (1 Bft)
18.07.2011 03:00 14,0 C 21,5 C 12,6 C 13,2 C 11,7 C 0,0 C 85 % 95 % 0 % 1003,4 hPa 0,0 l/m 1,0 km/h (0 Bft) S 0,00 h 0,0 UV-I 11,6 C 11,7 C 1,2 km/h (1 Bft)
18.07.2011 04:00 13,8 C 21,2 C 12,3 C 13,0 C 11,4 C 0,0 C 85 % 95 % 0 % 1003,5 hPa 0,0 l/m 1,3 km/h (1 Bft) SO 0,00 h 0,0 UV-I 11,3 C 11,4 C 2,1 km/h (1 Bft)
18.07.2011 05:00 13,6 C 21,0 C 12,1 C 12,9 C 11,3 C 0,0 C 84 % 95 % 0 % 1003,5 hPa 0,0 l/m 1,2 km/h (1 Bft) S 0,00 h 0,0 UV-I 11,0 C 11,3 C 1,7 km/h (1 Bft)
18.07.2011 06:00 13,6 C 20,9 C 12,1 C 12,8 C 11,4 C 0,0 C 85 % 95 % 0 % 1003,5 hPa 0,0 l/m 0,9 km/h (0 Bft) SO 0,00 h 0,0 UV-I 11,1 C 11,4 C 1,5 km/h (1 Bft)
18.07.2011 07:00 14,6 C 20,7 C 12,8 C 15,5 C 15,3 C 1,0 C 82 % 95 % 26 % 1003,6 hPa 0,0 l/m 2,8 km/h (1 Bft) S-SO 0,00 h 0,5 UV-I 11,6 C 15,3 C 4,2 km/h (1 Bft)
18.07.2011 08:00 15,0 C 20,5 C 13,4 C 16,2 C 16,2 C 1,1 C 80 % 95 % 29 % 1003,9 hPa 0,0 l/m 2,7 km/h (1 Bft) S 0,00 h 0,2 UV-I 11,6 C 16,2 C 4,2 km/h (1 Bft)
18.07.2011 09:00 15,6 C 20,4 C 14,5 C 18,7 C 18,7 C 3,0 C 77 % 95 % 69 % 1004,0 hPa 0,0 l/m 3,3 km/h (1 Bft) W-SW 0,33 h 0,2 UV-I 11,7 C 18,7 C 6,2 km/h (2 Bft)
18.07.2011 10:00 17,0 C 20,3 C 15,9 C 22,6 C 22,6 C 5,6 C 73 % 88 % 100 % 1004,0 hPa 0,0 l/m 5,2 km/h (1 Bft) W-SW 1,00 h 0,3 UV-I 12,1 C 22,6 C 8,1 km/h (2 Bft)
18.07.2011 11:00 18,2 C 20,4 C 17,3 C 22,7 C 22,7 C 4,6 C 69 % 78 % 97 % 1004,2 hPa 0,0 l/m 5,5 km/h (1 Bft) SO 0,92 h 0,3 UV-I 12,3 C 22,7 C 8,6 km/h (2 Bft)
18.07.2011 12:00 19,0 C 20,4 C 18,3 C 22,3 C 22,3 C 3,3 C 65 % 71 % 87 % 1004,0 hPa 0,0 l/m 6,2 km/h (2 Bft) W-SW 0,42 h 0,4 UV-I 12,2 C 22,3 C 9,0 km/h (2 Bft)
18.07.2011 13:00 19,7 C 20,5 C 19,3 C 23,7 C 23,7 C 4,0 C 60 % 66 % 89 % 1003,8 hPa 0,0 l/m 5,1 km/h (1 Bft) S 0,58 h 0,5 UV-I 11,6 C 23,7 C 5,1 km/h (1 Bft)
18.07.2011 14:00 20,2 C 20,6 C 20,0 C 23,7 C 23,7 C 3,5 C 57 % 64 % 86 % 1003,9 hPa 0,0 l/m 6,5 km/h (2 Bft) S 0,50 h 0,4 UV-I 11,4 C 23,7 C 9,2 km/h (2 Bft)
18.07.2011 15:00 21,1 C 20,7 C 22,2 C 26,2 C 26,2 C 5,1 C 54 % 56 % 100 % 1003,9 hPa 0,0 l/m 4,1 km/h (1 Bft) SO 1,00 h 0,4 UV-I 11,5 C 26,2 C 5,9 km/h (2 Bft)
18.07.2011 16:00 21,4 C 20,9 C 21,4 C 24,4 C 24,4 C 3,0 C 54 % 59 % 79 % 1003,6 hPa 0,0 l/m 3,2 km/h (1 Bft) W-SW 0,25 h 0,2 UV-I 11,7 C 24,4 C 5,6 km/h (1 Bft)
18.07.2011 17:00 21,8 C 21,1 C 21,6 C 24,6 C 24,6 C 2,9 C 53 % 57 % 75 % 1003,7 hPa 0,0 l/m 5,8 km/h (2 Bft) SW 0,42 h 0,2 UV-I 11,7 C 24,6 C 7,8 km/h (2 Bft)
18.07.2011 18:00 20,9 C 21,2 C 20,0 C 23,7 C 23,7 C 2,8 C 56 % 62 % 63 % 1004,2 hPa 0,0 l/m 3,1 km/h (1 Bft) O-NO 0,42 h 0,1 UV-I 11,8 C 23,7 C 2,5 km/h (1 Bft)
18.07.2011 19:00 19,5 C 21,3 C 18,1 C 20,0 C 19,9 C 0,5 C 62 % 70 % 12 % 1004,5 hPa 0,0 l/m 1,4 km/h (1 Bft) O-SO 0,00 h 0,0 UV-I 12,0 C 19,9 C 2,3 km/h (1 Bft)
18.07.2011 20:00 19,5 C 21,3 C 17,6 C 19,2 C 18,2 C 0,2 C 65 % 73 % 5 % 1004,5 hPa 0,0 l/m 1,0 km/h (0 Bft) SO 0,00 h 0,0 UV-I 12,7 C 18,2 C 1,3 km/h (1 Bft)
18.07.2011 21:00 18,8 C 21,3 C 16,7 C 17,8 C 15,7 C 0,0 C 69 % 77 % 0 % 1005,1 hPa 0,0 l/m 0,7 km/h (0 Bft) SW 0,00 h 0,0 UV-I 12,9 C 15,7 C 1,4 km/h (1 Bft)
18.07.2011 22:00 17,8 C 21,2 C 15,7 C 16,7 C 14,4 C 0,0 C 70 % 80 % 0 % 1005,7 hPa 0,0 l/m 1,6 km/h (1 Bft) S 0,00 h 0,0 UV-I 12,3 C 14,4 C 2,3 km/h (1 Bft)
18.07.2011 23:00 17,1 C 21,2 C 15,2 C 16,2 C 14,3 C 0,0 C 71 % 80 % 0 % 1005,9 hPa 0,0 l/m 1,3 km/h (1 Bft) S 0,00 h 0,0 UV-I 11,8 C 14,3 C 1,9 km/h (1 Bft)
19.07.2011 00:00 16,4 C 21,1 C 14,7 C 15,4 C 13,3 C 0,0 C 70 % 79 % 0 % 1006,0 hPa 0,0 l/m 2,0 km/h (1 Bft) SO 0,00 h 0,0 UV-I 10,9 C 13,3 C 2,9 km/h (1 Bft)
19.07.2011 01:00 15,8 C 21,0 C 14,0 C 14,6 C 12,3 C 0,0 C 70 % 79 % 0 % 1006,3 hPa 0,0 l/m 1,2 km/h (1 Bft) W-SW 0,00 h 0,0 UV-I 10,3 C 12,3 C 1,7 km/h (1 Bft)
19.07.2011 02:00 14,5 C 21,0 C 12,8 C 13,3 C 10,7 C 0,0 C 74 % 82 % 0 % 1006,5 hPa 0,0 l/m 0,0 km/h (0 Bft) N 0,00 h 0,0 UV-I 9,9 C 10,7 C 0,0 km/h (0 Bft)
19.07.2011 03:00 13,4 C 20,9 C 11,8 C 12,1 C 9,5 C 0,0 C 78 % 86 % 0 % 1006,8 hPa 0,0 l/m 0,0 km/h (0 Bft) N 0,00 h 0,0 UV-I 9,6 C 9,5 C 0,0 km/h (0 Bft)
19.07.2011 04:00 12,6 C 20,8 C 11,1 C 11,3 C 8,7 C 0,0 C 80 % 87 % 0 % 1006,7 hPa 0,0 l/m 0,0 km/h (0 Bft) N 0,00 h 0,0 UV-I 9,3 C 8,7 C 0,0 km/h (0 Bft)
19.07.2011 05:00 12,1 C 20,7 C 10,6 C 10,8 C 8,3 C 0,0 C 81 % 88 % 0 % 1007,0 hPa 0,0 l/m 0,0 km/h (0 Bft) N 0,00 h 0,0 UV-I 9,0 C 8,3 C 0,0 km/h (0 Bft)
19.07.2011 06:00 12,2 C 20,4 C 10,9 C 11,1 C 9,0 C 0,0 C 83 % 89 % 0 % 1006,9 hPa 0,0 l/m 0,0 km/h (0 Bft) N 0,00 h 0,0 UV-I 9,3 C 9,0 C 0,0 km/h (0 Bft)
19.07.2011 07:00 14,6 C 20,3 C 12,4 C 18,0 C 17,7 C 3,5 C 79 % 88 % 67 % 1006,9 hPa 0,0 l/m 0,0 km/h (0 Bft) N 0,58 h 0,4 UV-I 11,0 C 17,7 C 0,0 km/h (0 Bft)
19.07.2011 08:00 16,6 C 20,1 C 13,8 C 25,7 C 25,7 C 9,2 C 76 % 88 % 100 % 1007,1 hPa 0,0 l/m 0,0 km/h (0 Bft) N 1,00 h 0,2 UV-I 12,3 C 25,7 C 0,0 km/h (0 Bft)
19.07.2011 09:00 18,0 C 20,1 C 15,7 C 26,6 C 26,6 C 8,6 C 68 % 81 % 100 % 1006,8 hPa 0,0 l/m 0,6 km/h (0 Bft) NO 1,00 h 0,3 UV-I 12,1 C 26,6 C 1,6 km/h (1 Bft)
19.07.2011 10:00 18,7 C 20,1 C 17,4 C 25,4 C 25,4 C 6,6 C 63 % 72 % 98 % 1006,7 hPa 0,0 l/m 1,3 km/h (1 Bft) NO 0,92 h 0,2 UV-I 11,6 C 25,4 C 1,9 km/h (1 Bft)
19.07.2011 11:00 19,6 C 20,3 C 18,9 C 25,2 C 25,2 C 5,6 C 61 % 66 % 100 % 1006,3 hPa 0,0 l/m 2,1 km/h (1 Bft) O-NO 1,00 h 0,3 UV-I 11,9 C 25,2 C 3,8 km/h (1 Bft)
19.07.2011 12:00 21,1 C 20,4 C 20,6 C 25,7 C 25,7 C 4,6 C 55 % 60 % 100 % 1006,0 hPa 0,0 l/m 4,9 km/h (1 Bft) O 1,00 h 0,6 UV-I 11,8 C 25,7 C 7,3 km/h (2 Bft)
19.07.2011 13:00 21,9 C 20,6 C 21,5 C 26,2 C 26,2 C 4,4 C 54 % 59 % 98 % 1005,3 hPa 0,0 l/m 5,1 km/h (1 Bft) O-NO 1,00 h 0,6 UV-I 12,2 C 26,2 C 6,5 km/h (2 Bft)
19.07.2011 14:00 22,8 C 20,8 C 22,6 C 27,6 C 27,6 C 4,8 C 53 % 57 % 100 % 1004,5 hPa 0,0 l/m 4,2 km/h (1 Bft) O-NO 1,00 h 0,6 UV-I 12,7 C 27,6 C 6,5 km/h (2 Bft)
19.07.2011 15:00 23,0 C 21,1 C 23,3 C 26,5 C 26,5 C 3,5 C 52 % 55 % 89 % 1004,3 hPa 0,0 l/m 3,8 km/h (1 Bft) O-NO 0,67 h 0,4 UV-I 12,7 C 26,5 C 5,4 km/h (1 Bft)
19.07.2011 16:00 23,5 C 21,5 C 23,5 C 27,6 C 27,6 C 4,1 C 50 % 53 % 97 % 1004,1 hPa 0,0 l/m 3,8 km/h (1 Bft) O-NO 0,92 h 0,3 UV-I 12,6 C 27,6 C 4,8 km/h (1 Bft)
19.07.2011 17:00 23,8 C 21,8 C 23,2 C 27,0 C 27,0 C 3,2 C 49 % 54 % 83 % 1003,3 hPa 0,0 l/m 3,3 km/h (1 Bft) O-NO 0,58 h 0,1 UV-I 12,5 C 27,0 C 3,9 km/h (1 Bft)
19.07.2011 18:00 24,1 C 22,0 C 23,2 C 27,4 C 27,4 C 3,3 C 47 % 52 % 86 % 1002,9 hPa 0,0 l/m 4,7 km/h (1 Bft) O-NO 0,42 h 0,1 UV-I 12,2 C 27,4 C 5,6 km/h (1 Bft)
19.07.2011 19:00 23,7 C 22,1 C 22,5 C 25,0 C 25,0 C 1,3 C 48 % 54 % 35 % 1002,7 hPa 0,0 l/m 4,2 km/h (1 Bft) O-NO 0,00 h 0,0 UV-I 12,0 C 25,0 C 4,6 km/h (1 Bft)
19.07.2011 20:00 23,2 C 22,1 C 21,7 C 23,5 C 23,1 C 0,5 C 52 % 59 % 13 % 1002,4 hPa 0,0 l/m 2,6 km/h (1 Bft) O-NO 0,25 h 0,0 UV-I 12,7 C 23,1 C 2,3 km/h (1 Bft)
19.07.2011 21:00 21,7 C 22,2 C 19,4 C 20,8 C 19,1 C 0,0 C 59 % 69 % 0 % 1002,3 hPa 0,0 l/m 0,2 km/h (0 Bft) N 0,00 h 0,0 UV-I 13,4 C 19,1 C 0,2 km/h (0 Bft)
19.07.2011 22:00 20,3 C 22,2 C 18,0 C 19,3 C 17,4 C 0,0 C 66 % 76 % 0 % 1002,2 hPa 0,0 l/m 0,0 km/h (0 Bft) N 0,00 h 0,0 UV-I 13,7 C 17,4 C 0,0 km/h (0 Bft)
19.07.2011 23:00 19,4 C 22,2 C 17,2 C 18,6 C 17,0 C 0,0 C 68 % 78 % 0 % 1001,9 hPa 0,0 l/m 0,0 km/h (0 Bft) N 0,00 h 0,0 UV-I 13,3 C 17,0 C 0,0 km/h (0 Bft)
20.07.2011 00:00 18,5 C 22,1 C 16,9 C 18,0 C 16,8 C 0,0 C 69 % 78 % 0 % 1001,4 hPa 0,0 l/m 0,2 km/h (0 Bft) N 0,00 h 0,0 UV-I 12,8 C 16,8 C 0,7 km/h (0 Bft)
20.07.2011 01:00 18,1 C 22,0 C 16,7 C 17,6 C 16,6 C 0,0 C 71 % 79 % 0 % 1000,7 hPa 0,0 l/m 0,0 km/h (0 Bft) N 0,00 h 0,0 UV-I 12,7 C 16,6 C 0,0 km/h (0 Bft)
20.07.2011 02:00 17,7 C 22,0 C 16,3 C 17,1 C 16,0 C 0,0 C 72 % 80 % 0 % 1000,4 hPa 0,0 l/m 0,1 km/h (0 Bft) N 0,00 h 0,0 UV-I 12,5 C 16,0 C 0,4 km/h (0 Bft)
20.07.2011 03:00 17,2 C 21,8 C 15,9 C 16,7 C 15,8 C 0,0 C 72 % 81 % 0 % 999,7 hPa 0,0 l/m 0,3 km/h (0 Bft) O-NO 0,00 h 0,0 UV-I 12,1 C 15,8 C 0,8 km/h (0 Bft)
20.07.2011 04:00 17,0 C 21,7 C 15,9 C 16,6 C 15,6 C 0,0 C 72 % 79 % 0 % 999,1 hPa 0,0 l/m 0,4 km/h (0 Bft) N 0,00 h 0,0 UV-I 12,0 C 15,6 C 1,4 km/h (1 Bft)
20.07.2011 05:00 16,8 C 21,7 C 15,5 C 16,2 C 15,2 C 0,0 C 73 % 80 % 0 % 999,0 hPa 0,0 l/m 0,1 km/h (0 Bft) N 0,00 h 0,0 UV-I 11,9 C 15,2 C 0,2 km/h (0 Bft)
20.07.2011 06:00 16,5 C 21,7 C 15,4 C 16,1 C 15,3 C 0,0 C 76 % 82 % 0 % 998,9 hPa 0,0 l/m 0,0 km/h (0 Bft) N 0,00 h 0,0 UV-I 12,3 C 15,3 C 0,0 km/h (0 Bft)
20.07.2011 07:00 16,8 C 21,5 C 15,9 C 16,7 C 16,4 C 0,0 C 75 % 81 % 0 % 998,9 hPa 0,0 l/m 0,4 km/h (0 Bft) N 0,00 h 0,0 UV-I 12,3 C 16,4 C 0,8 km/h (0 Bft)
20.07.2011 08:00 17,0 C 21,4 C 16,1 C 17,1 C 17,0 C 0,2 C 73 % 79 % 5 % 999,0 hPa 0,0 l/m 0,3 km/h (0 Bft) N 0,00 h 0,0 UV-I 12,2 C 17,0 C 0,5 km/h (0 Bft)
20.07.2011 09:00 17,2 C 21,5 C 16,4 C 17,2 C 17,0 C 0,1 C 75 % 81 % 4 % 999,3 hPa 0,0 l/m 0,6 km/h (0 Bft) N 0,00 h 0,1 UV-I 12,8 C 17,0 C 1,1 km/h (1 Bft)
20.07.2011 10:00 17,4 C 21,4 C 16,7 C 17,5 C 17,5 C 0,2 C 78 % 83 % 4 % 999,5 hPa 0,0 l/m 0,5 km/h (0 Bft) W-NW 0,00 h 0,1 UV-I 13,5 C 17,5 C 1,2 km/h (1 Bft)
20.07.2011 11:00 17,8 C 21,4 C 17,3 C 18,7 C 18,7 C 1,0 C 78 % 82 % 26 % 999,8 hPa 0,0 l/m 1,1 km/h (1 Bft) NW 0,00 h 0,1 UV-I 13,9 C 18,7 C 1,5 km/h (1 Bft)
20.07.2011 12:00 18,1 C 21,4 C 17,7 C 18,2 C 18,2 C 0,1 C 80 % 84 % 3 % 1000,1 hPa 0,0 l/m 0,9 km/h (0 Bft) SW 0,00 h 0,1 UV-I 14,5 C 18,2 C 1,7 km/h (1 Bft)
20.07.2011 13:00 18,5 C 21,4 C 18,2 C 19,1 C 19,1 C 0,6 C 80 % 83 % 16 % 1000,2 hPa 0,0 l/m 1,3 km/h (1 Bft) S 0,00 h 0,1 UV-I 14,9 C 19,1 C 1,4 km/h (1 Bft)
20.07.2011 14:00 18,9 C 21,3 C 18,8 C 20,5 C 20,5 C 1,5 C 78 % 80 % 41 % 1000,0 hPa 0,0 l/m 2,8 km/h (1 Bft) W-SW 0,00 h 0,1 UV-I 14,9 C 20,5 C 4,6 km/h (1 Bft)
20.07.2011 15:00 19,2 C 21,4 C 19,1 C 20,7 C 20,7 C 1,5 C 74 % 76 % 39 % 1000,7 hPa 0,0 l/m 3,5 km/h (1 Bft) S 0,00 h 0,1 UV-I 14,5 C 20,7 C 5,4 km/h (1 Bft)
20.07.2011 16:00 19,5 C 21,4 C 19,2 C 20,6 C 20,6 C 1,1 C 73 % 75 % 30 % 1001,0 hPa 0,0 l/m 3,4 km/h (1 Bft) W-SW 0,00 h 0,1 UV-I 14,4 C 20,6 C 3,7 km/h (1 Bft)
20.07.2011 17:00 19,6 C 21,4 C 19,4 C 20,2 C 20,2 C 0,6 C 70 % 72 % 16 % 1001,1 hPa 0,0 l/m 3,8 km/h (1 Bft) W 0,00 h 0,0 UV-I 13,9 C 20,2 C 4,8 km/h (1 Bft)
20.07.2011 18:00 19,7 C 21,4 C 19,5 C 20,1 C 20,1 C 0,4 C 68 % 70 % 10 % 1001,5 hPa 0,0 l/m 4,4 km/h (1 Bft) S 0,00 h 0,0 UV-I 13,6 C 20,1 C 8,1 km/h (2 Bft)
20.07.2011 19:00 19,8 C 21,4 C 19,5 C 19,9 C 19,9 C 0,1 C 66 % 68 % 2 % 1002,0 hPa 0,0 l/m 3,6 km/h (1 Bft) SW 0,00 h 0,0 UV-I 13,3 C 19,9 C 4,3 km/h (1 Bft)
20.07.2011 20:00 19,6 C 21,5 C 19,2 C 19,5 C 19,2 C 0,0 C 67 % 69 % 0 % 1002,5 hPa 0,0 l/m 3,3 km/h (1 Bft) W-SW 0,00 h 0,0 UV-I 13,2 C 19,2 C 4,4 km/h (1 Bft)
20.07.2011 21:00 19,5 C 21,4 C 19,0 C 19,3 C 19,0 C 0,0 C 65 % 68 % 0 % 1002,9 hPa 0,0 l/m 3,1 km/h (1 Bft) W-SW 0,00 h 0,0 UV-I 12,6 C 19,0 C 4,1 km/h (1 Bft)
20.07.2011 22:00 19,2 C 21,4 C 18,6 C 19,0 C 18,7 C 0,0 C 64 % 67 % 0 % 1003,4 hPa 0,0 l/m 3,6 km/h (1 Bft) W-SW 0,00 h 0,0 UV-I 12,2 C 18,7 C 5,1 km/h (1 Bft)
20.07.2011 23:00 18,9 C 21,4 C 18,3 C 18,7 C 18,2 C 0,0 C 63 % 66 % 0 % 1003,7 hPa 0,0 l/m 4,1 km/h (1 Bft) SW 0,00 h 0,0 UV-I 11,7 C 18,2 C 5,4 km/h (1 Bft)
21.07.2011 00:00 18,6 C 21,3 C 17,7 C 18,3 C 17,6 C 0,0 C 62 % 65 % 0 % 1004,0 hPa 0,0 l/m 3,6 km/h (1 Bft) W-SW 0,00 h 0,0 UV-I 11,1 C 17,6 C 5,7 km/h (1 Bft)
21.07.2011 01:00 18,3 C 21,2 C 17,4 C 18,0 C 17,3 C 0,0 C 64 % 68 % 0 % 1004,4 hPa 0,0 l/m 4,0 km/h (1 Bft) W-SW 0,00 h 0,0 UV-I 11,3 C 17,3 C 5,0 km/h (1 Bft)
21.07.2011 02:00 17,9 C 21,1 C 16,9 C 17,6 C 16,9 C 0,0 C 66 % 71 % 0 % 1004,7 hPa 0,0 l/m 4,9 km/h (1 Bft) SW 0,00 h 0,0 UV-I 11,5 C 16,9 C 6,7 km/h (2 Bft)
21.07.2011 03:00 17,5 C 21,2 C 16,6 C 17,2 C 16,4 C 0,0 C 68 % 73 % 0 % 1004,3 hPa 0,0 l/m 4,5 km/h (1 Bft) SW 0,00 h 0,0 UV-I 11,6 C 16,4 C 5,0 km/h (1 Bft)
21.07.2011 04:00 17,1 C 21,1 C 16,1 C 16,7 C 15,9 C 0,0 C 70 % 76 % 0 % 1004,1 hPa 0,0 l/m 5,0 km/h (1 Bft) W-SW 0,00 h 0,0 UV-I 11,7 C 15,9 C 6,6 km/h (2 Bft)
21.07.2011 05:00 16,8 C 21,0 C 15,7 C 16,3 C 15,4 C 0,0 C 74 % 80 % 0 % 1004,1 hPa 0,0 l/m 6,1 km/h (2 Bft) W-SW 0,00 h 0,0 UV-I 12,1 C 15,4 C 7,6 km/h (2 Bft)
21.07.2011 06:00 16,5 C 21,0 C 15,5 C 16,1 C 15,4 C 0,0 C 77 % 82 % 0 % 1004,3 hPa 0,0 l/m 5,1 km/h (1 Bft) SW 0,00 h 0,1 UV-I 12,4 C 15,4 C 6,8 km/h (2 Bft)
21.07.2011 07:00 16,4 C 20,9 C 15,6 C 16,3 C 15,9 C 0,0 C 77 % 82 % 0 % 1004,8 hPa 0,0 l/m 5,6 km/h (1 Bft) W-SW 0,00 h 0,5 UV-I 12,4 C 15,9 C 7,4 km/h (2 Bft)
21.07.2011 08:00 16,6 C 20,8 C 16,1 C 17,1 C 17,0 C 0,5 C 77 % 80 % 12 % 1004,8 hPa 0,0 l/m 6,1 km/h (2 Bft) W-SW 0,00 h 0,4 UV-I 12,5 C 17,0 C 7,6 km/h (2 Bft)
21.07.2011 09:00 17,1 C 20,7 C 16,9 C 18,6 C 18,6 C 1,4 C 74 % 76 % 38 % 1004,7 hPa 0,0 l/m 6,6 km/h (2 Bft) W-SW 0,00 h 0,3 UV-I 12,5 C 18,6 C 9,9 km/h (2 Bft)
21.07.2011 10:00 17,7 C 20,7 C 17,6 C 19,8 C 19,8 C 2,1 C 70 % 71 % 55 % 1004,9 hPa 0,0 l/m 5,9 km/h (2 Bft) S 0,00 h 0,2 UV-I 12,0 C 19,8 C 7,0 km/h (2 Bft)
21.07.2011 11:00 18,3 C 20,7 C 18,2 C 20,8 C 20,8 C 2,5 C 67 % 69 % 67 % 1004,9 hPa 0,0 l/m 5,4 km/h (1 Bft) W 0,00 h 0,1 UV-I 12,0 C 20,8 C 7,3 km/h (2 Bft)
21.07.2011 12:00 18,7 C 20,7 C 18,6 C 20,6 C 20,6 C 1,9 C 68 % 71 % 50 % 1004,6 hPa 0,0 l/m 5,6 km/h (1 Bft) SW 0,00 h 0,1 UV-I 12,8 C 20,6 C 7,9 km/h (2 Bft)
21.07.2011 13:00 18,8 C 20,8 C 18,4 C 19,4 C 19,4 C 0,6 C 70 % 73 % 17 % 1004,4 hPa 0,0 l/m 4,3 km/h (1 Bft) W-SW 0,00 h 0,1 UV-I 13,2 C 19,4 C 5,3 km/h (1 Bft)
21.07.2011 14:00 18,8 C 20,9 C 18,5 C 20,0 C 20,0 C 1,2 C 70 % 73 % 32 % 1004,5 hPa 0,0 l/m 4,0 km/h (1 Bft) SW 0,00 h 0,1 UV-I 13,3 C 20,0 C 5,3 km/h (1 Bft)
21.07.2011 15:00 19,0 C 20,9 C 18,7 C 20,4 C 20,4 C 1,4 C 70 % 72 % 36 % 1004,6 hPa 0,0 l/m 3,7 km/h (1 Bft) SW 0,00 h 0,1 UV-I 13,3 C 20,4 C 5,3 km/h (1 Bft)
21.07.2011 16:00 19,1 C 21,0 C 18,7 C 19,9 C 19,9 C 0,8 C 70 % 73 % 20 % 1004,5 hPa 0,0 l/m 2,6 km/h (1 Bft) N-NO 0,00 h 0,1 UV-I 13,4 C 19,9 C 3,0 km/h (1 Bft)
21.07.2011 17:00 19,2 C 21,0 C 18,8 C 20,1 C 20,1 C 0,9 C 69 % 72 % 23 % 1004,3 hPa 0,0 l/m 3,4 km/h (1 Bft) SW 0,00 h 0,0 UV-I 13,4 C 20,1 C 4,2 km/h (1 Bft)
21.07.2011 18:00 19,3 C 21,1 C 18,8 C 20,0 C 20,0 C 0,7 C 68 % 71 % 20 % 1004,1 hPa 0,0 l/m 3,5 km/h (1 Bft) S-SO 0,00 h 0,0 UV-I 13,3 C 20,0 C 4,9 km/h (1 Bft)
21.07.2011 19:00 19,2 C 21,1 C 18,4 C 19,1 C 19,0 C 0,0 C 68 % 71 % 0 % 1004,1 hPa 0,0 l/m 2,1 km/h (1 Bft) S 0,00 h 0,0 UV-I 13,1 C 19,0 C 3,4 km/h (1 Bft)
21.07.2011 20:00 18,8 C 21,1 C 17,9 C 18,5 C 17,9 C 0,0 C 67 % 72 % 0 % 1004,1 hPa 0,0 l/m 1,9 km/h (1 Bft) S 0,00 h 0,0 UV-I 12,6 C 17,9 C 2,8 km/h (1 Bft)
21.07.2011 21:00 18,3 C 21,1 C 17,0 C 17,7 C 16,4 C 0,0 C 69 % 75 % 0 % 1004,3 hPa 0,0 l/m 1,3 km/h (1 Bft) SW 0,00 h 0,0 UV-I 12,6 C 16,4 C 1,2 km/h (1 Bft)
21.07.2011 22:00 17,8 C 21,1 C 16,2 C 17,0 C 15,6 C 0,0 C 71 % 78 % 0 % 1004,6 hPa 0,0 l/m 0,7 km/h (0 Bft) W-SW 0,00 h 0,0 UV-I 12,4 C 15,6 C 1,6 km/h (1 Bft)
21.07.2011 23:00 17,4 C 21,1 C 16,0 C 16,8 C 15,6 C 0,0 C 73 % 80 % 0 % 1004,7 hPa 0,0 l/m 2,3 km/h (1 Bft) W-SW 0,00 h 0,0 UV-I 12,4 C 15,6 C 3,4 km/h (1 Bft)
22.07.2011 00:00 16,9 C 21,0 C 15,6 C 16,4 C 15,3 C 0,0 C 73 % 80 % 0 % 1004,5 hPa 0,0 l/m 3,6 km/h (1 Bft) W-SW 0,00 h 0,0 UV-I 12,1 C 15,3 C 6,2 km/h (2 Bft)
22.07.2011 01:00 16,5 C 21,0 C 15,2 C 16,0 C 14,9 C 0,0 C 74 % 80 % 0 % 1003,9 hPa 0,0 l/m 4,5 km/h (1 Bft) W-SW 0,00 h 0,0 UV-I 11,8 C 14,9 C 7,7 km/h (2 Bft)
22.07.2011 02:00 16,1 C 20,9 C 15,0 C 15,7 C 14,8 C 0,0 C 75 % 81 % 0 % 1003,6 hPa 0,0 l/m 5,5 km/h (1 Bft) W-SW 0,00 h 0,0 UV-I 11,8 C 14,8 C 9,8 km/h (2 Bft)
22.07.2011 03:00 15,9 C 20,8 C 14,8 C 15,5 C 14,7 C 0,0 C 76 % 82 % 0 % 1003,1 hPa 0,0 l/m 5,8 km/h (2 Bft) W-SW 0,00 h 0,0 UV-I 11,6 C 14,7 C 7,3 km/h (2 Bft)
22.07.2011 04:00 15,6 C 20,7 C 14,8 C 15,4 C 14,8 C 0,0 C 76 % 80 % 0 % 1003,1 hPa 0,0 l/m 7,5 km/h (2 Bft) W-SW 0,00 h 0,0 UV-I 11,4 C 14,8 C 9,4 km/h (2 Bft)
22.07.2011 05:00 15,3 C 20,6 C 14,3 C 14,9 C 14,0 C 0,0 C 76 % 82 % 0 % 1003,4 hPa 0,0 l/m 7,5 km/h (2 Bft) W-SW 0,00 h 0,0 UV-I 11,2 C 14,0 C 10,2 km/h (2 Bft)
22.07.2011 06:00 14,9 C 20,5 C 13,7 C 14,3 C 13,2 C 0,0 C 77 % 83 % 0 % 1003,7 hPa 0,0 l/m 7,1 km/h (2 Bft) W-SW 0,00 h 0,0 UV-I 11,0 C 13,2 C 10,1 km/h (2 Bft)
22.07.2011 07:00 14,5 C 20,4 C 13,5 C 14,1 C 13,3 C 0,0 C 77 % 82 % 0 % 1004,0 hPa 0,0 l/m 7,3 km/h (2 Bft) W-SW 0,00 h 0,0 UV-I 10,6 C 13,3 C 9,0 km/h (2 Bft)
22.07.2011 08:00 14,4 C 20,3 C 13,5 C 14,1 C 13,3 C 0,0 C 77 % 81 % 0 % 1004,2 hPa 0,0 l/m 8,3 km/h (2 Bft) W-SW 0,00 h 0,0 UV-I 10,3 C 13,3 C 11,7 km/h (2 Bft)
22.07.2011 09:00 14,3 C 20,2 C 13,5 C 14,0 C 13,3 C 0,0 C 76 % 80 % 0 % 1004,5 hPa 0,0 l/m 8,8 km/h (2 Bft) W-SW 0,00 h 0,0 UV-I 10,1 C 13,3 C 9,9 km/h (2 Bft)
22.07.2011 10:00 14,3 C 20,1 C 13,6 C 14,1 C 13,6 C 0,0 C 76 % 80 % 0 % 1004,8 hPa 0,0 l/m 8,4 km/h (2 Bft) W-SW 0,00 h 0,0 UV-I 10,0 C 13,6 C 12,7 km/h (3 Bft)
22.07.2011 11:00 14,5 C 20,0 C 14,0 C 14,4 C 14,2 C 0,0 C 74 % 77 % 1 % 1004,6 hPa 0,0 l/m 10,5 km/h (2 Bft) W-SW 0,00 h 0,3 UV-I 9,9 C 14,2 C 11,2 km/h (2 Bft)
22.07.2011 12:00 14,9 C 19,8 C 14,6 C 15,9 C 15,9 C 1,0 C 70 % 72 % 26 % 1004,8 hPa 0,0 l/m 9,9 km/h (2 Bft) W-SW 0,00 h 0,3 UV-I 9,5 C 15,9 C 11,7 km/h (2 Bft)
22.07.2011 13:00 15,1 C 19,8 C 14,8 C 15,5 C 15,4 C 0,4 C 68 % 69 % 10 % 1005,0 hPa 0,0 l/m 10,7 km/h (2 Bft) W-SW 0,00 h 0,1 UV-I 9,2 C 15,4 C 12,4 km/h (3 Bft)
22.07.2011 14:00 15,5 C 19,7 C 15,4 C 16,7 C 16,7 C 1,2 C 64 % 65 % 31 % 1005,0 hPa 0,0 l/m 9,2 km/h (2 Bft) W-SW 0,00 h 0,1 UV-I 8,8 C 16,7 C 13,2 km/h (3 Bft)
22.07.2011 15:00 15,9 C 19,7 C 15,6 C 16,4 C 16,4 C 0,5 C 62 % 64 % 14 % 1005,1 hPa 0,0 l/m 10,3 km/h (2 Bft) W-SW 0,00 h 0,1 UV-I 8,7 C 16,4 C 15,4 km/h (3 Bft)
22.07.2011 16:00 16,0 C 19,7 C 15,8 C 16,9 C 16,9 C 0,9 C 63 % 65 % 25 % 1005,5 hPa 0,0 l/m 8,4 km/h (2 Bft) W-SW 0,00 h 0,1 UV-I 9,0 C 16,9 C 11,7 km/h (2 Bft)
22.07.2011 17:00 16,3 C 19,7 C 16,0 C 17,1 C 17,1 C 0,9 C 61 % 61 % 23 % 1005,9 hPa 0,0 l/m 10,0 km/h (2 Bft) W-SW 0,00 h 0,1 UV-I 8,6 C 17,1 C 13,7 km/h (3 Bft)
22.07.2011 18:00 16,4 C 19,7 C 16,0 C 16,7 C 16,7 C 0,4 C 60 % 61 % 9 % 1005,9 hPa 0,0 l/m 8,4 km/h (2 Bft) W-SW 0,00 h 0,0 UV-I 8,6 C 16,7 C 11,2 km/h (2 Bft)
22.07.2011 19:00 16,3 C 19,7 C 15,8 C 16,2 C 16,1 C 0,0 C 59 % 62 % 0 % 1006,2 hPa 0,0 l/m 7,0 km/h (2 Bft) W-SW 0,00 h 0,0 UV-I 8,3 C 16,1 C 8,8 km/h (2 Bft)
22.07.2011 20:00 16,1 C 19,7 C 15,5 C 15,9 C 15,6 C 0,0 C 60 % 62 % 0 % 1006,3 hPa 0,0 l/m 7,3 km/h (2 Bft) SW 0,00 h 0,0 UV-I 8,2 C 15,6 C 10,2 km/h (2 Bft)
22.07.2011 21:00 15,8 C 19,6 C 15,0 C 15,5 C 14,8 C 0,0 C 60 % 63 % 0 % 1006,4 hPa 0,0 l/m 6,2 km/h (2 Bft) W-SW 0,00 h 0,0 UV-I 8,0 C 14,8 C 7,0 km/h (2 Bft)
22.07.2011 22:00 15,4 C 19,6 C 14,4 C 15,0 C 14,3 C 0,0 C 62 % 67 % 0 % 1006,7 hPa 0,0 l/m 5,2 km/h (1 Bft) W-SW 0,00 h 0,0 UV-I 8,1 C 14,3 C 6,8 km/h (2 Bft)
22.07.2011 23:00 15,1 C 19,6 C 14,2 C 14,8 C 14,1 C 0,0 C 63 % 68 % 0 % 1006,9 hPa 0,0 l/m 5,6 km/h (1 Bft) W-SW 0,00 h 0,0 UV-I 8,1 C 14,1 C 7,0 km/h (2 Bft)
23.07.2011 00:00 14,8 C 19,6 C 14,0 C 14,4 C 13,7 C 0,0 C 63 % 67 % 0 % 1007,0 hPa 0,0 l/m 8,0 km/h (2 Bft) W-SW 0,00 h 0,0 UV-I 7,9 C 13,7 C 13,0 km/h (3 Bft)
23.07.2011 01:00 14,6 C 19,6 C 13,7 C 14,2 C 13,4 C 0,0 C 64 % 69 % 0 % 1007,1 hPa 0,0 l/m 7,2 km/h (2 Bft) S 0,00 h 0,0 UV-I 7,9 C 13,4 C 8,6 km/h (2 Bft)
23.07.2011 02:00 14,3 C 19,5 C 13,4 C 13,8 C 12,9 C 0,0 C 67 % 72 % 0 % 1007,0 hPa 0,0 l/m 6,2 km/h (2 Bft) W-SW 0,00 h 0,0 UV-I 8,1 C 12,9 C 8,8 km/h (2 Bft)
23.07.2011 03:00 13,8 C 19,4 C 12,8 C 13,3 C 12,3 C 0,0 C 68 % 74 % 0 % 1007,0 hPa 0,0 l/m 4,5 km/h (1 Bft) W-SW 0,00 h 0,0 UV-I 8,1 C 12,3 C 5,7 km/h (1 Bft)
23.07.2011 04:00 13,3 C 19,4 C 11,9 C 12,6 C 11,1 C 0,0 C 70 % 77 % 0 % 1007,2 hPa 0,0 l/m 4,5 km/h (1 Bft) W-SW 0,00 h 0,0 UV-I 7,9 C 11,1 C 6,1 km/h (2 Bft)
23.07.2011 05:00 12,6 C 19,4 C 11,1 C 11,7 C 9,9 C 0,0 C 72 % 79 % 0 % 1007,4 hPa 0,0 l/m 3,7 km/h (1 Bft) W-SW 0,00 h 0,0 UV-I 7,7 C 9,9 C 5,2 km/h (1 Bft)
23.07.2011 06:00 12,3 C 19,3 C 11,4 C 11,9 C 11,1 C 0,0 C 73 % 79 % 0 % 1007,6 hPa 0,0 l/m 4,0 km/h (1 Bft) W-SW 0,00 h 0,0 UV-I 7,6 C 11,1 C 7,1 km/h (2 Bft)
23.07.2011 07:00 12,6 C 19,1 C 12,0 C 12,5 C 12,3 C 0,0 C 72 % 77 % 0 % 1007,9 hPa 0,0 l/m 6,1 km/h (2 Bft) SW 0,00 h 0,0 UV-I 7,8 C 12,3 C 6,2 km/h (2 Bft)
23.07.2011 08:00 13,3 C 19,1 C 12,5 C 14,7 C 14,6 C 1,4 C 70 % 75 % 37 % 1008,0 hPa 0,0 l/m 9,7 km/h (2 Bft) SW 0,17 h 0,3 UV-I 8,0 C 14,6 C 14,3 km/h (3 Bft)
23.07.2011 09:00 14,2 C 18,9 C 13,7 C 17,6 C 17,6 C 3,3 C 67 % 70 % 86 % 1007,9 hPa 0,0 l/m 10,9 km/h (2 Bft) S 0,67 h 0,1 UV-I 8,2 C 17,6 C 14,1 km/h (3 Bft)
23.07.2011 10:00 15,0 C 18,9 C 14,5 C 18,8 C 18,8 C 3,7 C 63 % 66 % 97 % 1008,0 hPa 0,0 l/m 11,5 km/h (2 Bft) W-SW 0,83 h 0,2 UV-I 8,1 C 18,8 C 15,5 km/h (3 Bft)
23.07.2011 11:00 15,5 C 19,0 C 15,1 C 17,8 C 17,7 C 2,2 C 61 % 62 % 59 % 1008,1 hPa 0,0 l/m 8,6 km/h (2 Bft) W-SW 0,33 h 0,0 UV-I 8,0 C 17,7 C 11,0 km/h (2 Bft)
23.07.2011 12:00 16,2 C 18,9 C 16,1 C 19,3 C 19,3 C 3,1 C 59 % 61 % 81 % 1008,0 hPa 0,0 l/m 8,5 km/h (2 Bft) W-SW 0,58 h 0,1 UV-I 8,1 C 19,3 C 12,1 km/h (2 Bft)
23.07.2011 13:00 16,9 C 19,0 C 17,2 C 20,3 C 20,3 C 3,3 C 55 % 55 % 87 % 1008,1 hPa 0,0 l/m 8,7 km/h (2 Bft) W-SW 0,58 h 0,1 UV-I 7,8 C 20,3 C 11,3 km/h (2 Bft)
23.07.2011 14:00 17,3 C 19,1 C 17,6 C 20,2 C 20,2 C 2,9 C 53 % 53 % 75 % 1008,3 hPa 0,0 l/m 9,5 km/h (2 Bft) W-SW 0,25 h 0,1 UV-I 7,6 C 20,2 C 11,9 km/h (2 Bft)
23.07.2011 15:00 17,6 C 19,2 C 17,9 C 19,9 C 19,9 C 2,3 C 51 % 51 % 60 % 1008,0 hPa 0,0 l/m 8,9 km/h (2 Bft) W-SW 0,00 h 0,1 UV-I 7,5 C 19,9 C 11,9 km/h (2 Bft)
23.07.2011 16:00 17,9 C 19,4 C 18,4 C 20,4 C 20,4 C 2,5 C 51 % 50 % 64 % 1007,6 hPa 0,0 l/m 7,2 km/h (2 Bft) W-SW 0,17 h 0,1 UV-I 7,6 C 20,4 C 8,6 km/h (2 Bft)
23.07.2011 17:00 18,3 C 19,5 C 18,5 C 20,5 C 20,5 C 2,2 C 49 % 50 % 57 % 1007,8 hPa 0,0 l/m 6,5 km/h (2 Bft) W-SW 0,08 h 0,0 UV-I 7,3 C 20,5 C 8,0 km/h (2 Bft)
23.07.2011 18:00 18,7 C 19,6 C 18,4 C 20,1 C 20,1 C 1,4 C 47 % 48 % 36 % 1007,6 hPa 0,0 l/m 7,3 km/h (2 Bft) S 0,08 h 0,0 UV-I 7,3 C 20,1 C 7,7 km/h (2 Bft)
23.07.2011 19:00 18,0 C 19,6 C 17,2 C 18,0 C 17,8 C 0,0 C 50 % 54 % 1 % 1007,9 hPa 0,0 l/m 8,1 km/h (2 Bft) W 0,00 h 0,0 UV-I 7,5 C 17,8 C 10,1 km/h (2 Bft)
23.07.2011 20:00 17,8 C 19,8 C 16,4 C 17,4 C 16,4 C 0,1 C 53 % 58 % 2 % 1008,0 hPa 0,0 l/m 7,3 km/h (2 Bft) SW 0,00 h 0,0 UV-I 8,0 C 16,4 C 8,2 km/h (2 Bft)
23.07.2011 21:00 16,6 C 19,7 C 14,7 C 15,5 C 13,4 C 0,0 C 57 % 65 % 0 % 1008,2 hPa 0,0 l/m 2,0 km/h (1 Bft) O-SO 0,00 h 0,0 UV-I 8,1 C 13,4 C 2,3 km/h (1 Bft)
23.07.2011 22:00 15,1 C 19,8 C 13,2 C 13,9 C 11,3 C 0,0 C 64 % 72 % 0 % 1008,4 hPa 0,0 l/m 0,2 km/h (0 Bft) N 0,00 h 0,0 UV-I 8,3 C 11,3 C 0,4 km/h (0 Bft)
23.07.2011 23:00 14,4 C 19,7 C 12,7 C 13,3 C 11,1 C 0,0 C 67 % 75 % 0 % 1008,2 hPa 0,0 l/m 0,7 km/h (0 Bft) SW 0,00 h 0,0 UV-I 8,4 C 11,1 C 1,6 km/h (1 Bft)
24.07.2011 00:00 14,0 C 19,7 C 12,6 C 13,2 C 11,6 C 0,0 C 70 % 77 % 0 % 1008,1 hPa 0,0 l/m 0,1 km/h (0 Bft) N 0,00 h 0,0 UV-I 8,5 C 11,6 C 0,0 km/h (0 Bft)
24.07.2011 01:00 14,0 C 19,6 C 13,0 C 13,5 C 12,6 C 0,0 C 71 % 76 % 0 % 1008,0 hPa 0,0 l/m 0,3 km/h (0 Bft) N 0,00 h 0,0 UV-I 8,7 C 12,6 C 0,8 km/h (0 Bft)
24.07.2011 02:00 13,7 C 19,5 C 12,6 C 12,8 C 11,0 C 0,0 C 71 % 76 % 0 % 1007,9 hPa 0,0 l/m 0,1 km/h (0 Bft) N 0,00 h 0,0 UV-I 8,5 C 11,0 C 0,2 km/h (0 Bft)
24.07.2011 03:00 13,1 C 19,5 C 11,7 C 12,1 C 10,2 C 0,0 C 74 % 80 % 0 % 1008,0 hPa 0,0 l/m 0,1 km/h (0 Bft) N 0,00 h 0,0 UV-I 8,4 C 10,2 C 0,2 km/h (0 Bft)
24.07.2011 04:00 13,0 C 19,5 C 12,0 C 12,4 C 11,0 C 0,0 C 74 % 79 % 0 % 1007,8 hPa 0,0 l/m 0,3 km/h (0 Bft) N 0,00 h 0,0 UV-I 8,4 C 11,0 C 0,4 km/h (0 Bft)
24.07.2011 05:00 12,4 C 19,4 C 11,1 C 11,3 C 9,1 C 0,0 C 75 % 81 % 0 % 1007,8 hPa 0,0 l/m 0,1 km/h (0 Bft) N 0,00 h 0,0 UV-I 8,2 C 9,1 C 0,2 km/h (0 Bft)
24.07.2011 06:00 12,1 C 19,3 C 10,9 C 11,2 C 9,2 C 0,0 C 77 % 83 % 0 % 1008,2 hPa 0,0 l/m 0,2 km/h (0 Bft) SW 0,00 h 0,0 UV-I 8,2 C 9,2 C 0,6 km/h (0 Bft)
24.07.2011 07:00 14,1 C 19,2 C 12,3 C 17,9 C 17,8 C 3,9 C 72 % 79 % 79 % 1008,5 hPa 0,0 l/m 1,6 km/h (1 Bft) SW 0,67 h 0,4 UV-I 9,2 C 17,8 C 3,2 km/h (1 Bft)
24.07.2011 08:00 15,7 C 19,1 C 13,3 C 21,1 C 21,1 C 5,5 C 68 % 77 % 100 % 1008,6 hPa 0,0 l/m 3,5 km/h (1 Bft) NO 1,00 h 0,1 UV-I 9,7 C 21,1 C 7,8 km/h (2 Bft)
24.07.2011 09:00 16,1 C 19,1 C 13,3 C 21,3 C 21,3 C 5,2 C 65 % 77 % 99 % 1008,8 hPa 0,0 l/m 4,0 km/h (1 Bft) SW 1,00 h 0,1 UV-I 9,6 C 21,3 C 5,0 km/h (1 Bft)
24.07.2011 10:00 16,8 C 19,0 C 13,3 C 21,8 C 21,8 C 4,9 C 63 % 77 % 98 % 1008,7 hPa 0,0 l/m 3,6 km/h (1 Bft) W-SW 1,00 h 0,1 UV-I 9,7 C 21,8 C 4,6 km/h (1 Bft)
24.07.2011 11:00 17,6 C 19,1 C 16,6 C 21,6 C 21,6 C 4,0 C 57 % 62 % 90 % 1008,6 hPa 0,0 l/m 6,2 km/h (2 Bft) O-SO 0,67 h 0,1 UV-I 9,1 C 21,6 C 11,6 km/h (2 Bft)
24.07.2011 12:00 18,1 C 19,2 C 17,5 C 21,0 C 21,0 C 2,9 C 54 % 58 % 75 % 1008,9 hPa 0,0 l/m 7,0 km/h (2 Bft) SW 0,42 h 0,1 UV-I 8,6 C 21,0 C 11,9 km/h (2 Bft)
24.07.2011 13:00 18,4 C 19,3 C 18,0 C 20,7 C 20,7 C 2,2 C 50 % 53 % 59 % 1008,9 hPa 0,0 l/m 8,7 km/h (2 Bft) W-SW 0,17 h 0,1 UV-I 7,8 C 20,7 C 13,7 km/h (3 Bft)
24.07.2011 14:00 18,7 C 19,5 C 18,9 C 21,8 C 21,8 C 3,1 C 51 % 52 % 80 % 1009,1 hPa 0,0 l/m 7,7 km/h (2 Bft) S 0,33 h 0,1 UV-I 8,3 C 21,8 C 7,4 km/h (2 Bft)
24.07.2011 15:00 19,0 C 19,6 C 19,4 C 22,2 C 22,2 C 3,3 C 51 % 51 % 83 % 1009,4 hPa 0,0 l/m 6,1 km/h (2 Bft) W-SW 0,42 h 0,1 UV-I 8,7 C 22,2 C 9,2 km/h (2 Bft)
24.07.2011 16:00 18,8 C 19,8 C 18,6 C 20,2 C 20,2 C 1,4 C 52 % 55 % 36 % 1009,2 hPa 0,0 l/m 5,5 km/h (1 Bft) O-SO 0,00 h 0,0 UV-I 8,7 C 20,2 C 6,6 km/h (2 Bft)
24.07.2011 17:00 18,3 C 19,9 C 17,6 C 18,8 C 18,7 C 0,4 C 53 % 56 % 11 % 1009,4 hPa 0,0 l/m 6,5 km/h (2 Bft) S-SW 0,00 h 0,0 UV-I 8,5 C 18,7 C 7,7 km/h (2 Bft)
24.07.2011 18:00 18,0 C 20,0 C 17,1 C 18,2 C 18,1 C 0,3 C 54 % 59 % 7 % 1009,7 hPa 0,0 l/m 4,0 km/h (1 Bft) S-SO 0,00 h 0,0 UV-I 8,6 C 18,1 C 4,9 km/h (1 Bft)
24.07.2011 19:00 17,3 C 20,1 C 16,3 C 17,0 C 16,5 C 0,0 C 56 % 62 % 0 % 1009,8 hPa 0,0 l/m 4,6 km/h (1 Bft) W-SW 0,00 h 0,0 UV-I 8,5 C 16,5 C 5,9 km/h (2 Bft)
24.07.2011 20:00 16,6 C 20,1 C 15,5 C 16,2 C 15,2 C 0,0 C 59 % 65 % 0 % 1009,9 hPa 0,0 l/m 3,2 km/h (1 Bft) S 0,00 h 0,0 UV-I 8,5 C 15,2 C 5,2 km/h (1 Bft)
24.07.2011 21:00 15,9 C 20,1 C 14,4 C 14,9 C 13,0 C 0,0 C 61 % 68 % 0 % 1010,3 hPa 0,0 l/m 1,3 km/h (1 Bft) SO 0,00 h 0,0 UV-I 8,4 C 13,0 C 2,0 km/h (1 Bft)
24.07.2011 22:00 14,9 C 20,0 C 13,4 C 13,8 C 11,6 C 0,0 C 65 % 72 % 0 % 1010,4 hPa 0,0 l/m 0,9 km/h (0 Bft) O-NO 0,00 h 0,0 UV-I 8,4 C 11,6 C 1,8 km/h (1 Bft)
24.07.2011 23:00 14,1 C 19,9 C 12,5 C 12,9 C 10,5 C 0,0 C 68 % 75 % 0 % 1010,5 hPa 0,0 l/m 0,2 km/h (0 Bft) N 0,00 h 0,0 UV-I 8,2 C 10,5 C 0,3 km/h (0 Bft)
Min-Datum _ 19.07.11 23.07.11 19.07.11 19.07.11 19.07.11 18.07.11 19.07.11 23.07.11 18.07.11 20.07.11 - 18.07.11 - - 18.07.11 23.07.11 19.07.11 18.07.11
_ Min-Zeit 05:50 09:25 05:45 05:30 05:10 00:00 18:45 16:40 00:00 06:30 - 00:20 - - 00:00 17:30 05:10 00:10
Minimum _ 11,9 C 18,9 C 10,4 C 10,7 C 8,2 C 0,0 C 45 % 45 % 0 % 998,8 hPa - 0,0 km/h (0 Bft) - - 0,0 UV-I 6,7 C 8,2 C 0,0 km/h (0 Bft)
Max-Datum _ 19.07.11 18.07.11 19.07.11 19.07.11 19.07.11 19.07.11 18.07.11 18.07.11 18.07.11 24.07.11 18.07.11 22.07.11 - 18.07.11 18.07.11 20.07.11 19.07.11 23.07.11
_ Max-Zeit 18:40 00:00 16:45 14:25 14:25 08:40 01:25 00:00 09:45 21:30 00:15 13:10 - 10:10 07:40 13:55 14:25 08:10
Maximum _ 24,3 C 22,3 C 24,0 C 28,4 C 28,4 C 10,1 C 86 % 95 % 100 % 1010,7 hPa 0,7 l/m 12,9 km/h
W-SW (3 Bft)
- 0,17 h 0,9 UV-I 15,2 C 28,4 C 28,6 km/h
SW (4 Bft)
Durchschnitt _ 17,1 C 20,5 C 16,1 C 17,9 C 17,3 C 1,2 C 67 % 73 % 26 % 1005,1 hPa #0,7 l/m 4,0 km/h (1 Bft) W-SW #25:35 h 0,2 UV-I 10,8 C 17,3 C 5,4 km/h (1 Bft)
2013 www.wetterstation-wechselburg.de